createdAt,value
2018-09-23T00:01:26.186Z,2.42
2018-09-23T00:03:53.701Z,2.00
2018-09-23T00:06:21.410Z,2.65
2018-09-23T00:08:48.916Z,2.20
2018-09-23T00:11:16.485Z,2.80
2018-09-23T00:13:44.075Z,2.47
2018-09-23T00:16:11.941Z,2.42
2018-09-23T00:18:39.545Z,2.33
2018-09-23T00:21:07.206Z,2.40
2018-09-23T00:23:34.753Z,1.90
2018-09-23T00:26:02.607Z,2.15
2018-09-23T00:28:30.184Z,2.70
2018-09-23T00:30:57.798Z,2.50
2018-09-23T00:33:25.339Z,2.35
2018-09-23T00:35:52.949Z,2.50
2018-09-23T00:38:20.471Z,2.33
2018-09-23T00:40:48.085Z,2.67
2018-09-23T00:43:15.642Z,2.40
2018-09-23T00:45:43.237Z,2.55
2018-09-23T00:48:10.922Z,2.90
2018-09-23T00:50:38.659Z,2.33
2018-09-23T00:53:06.239Z,2.80
2018-09-23T00:55:33.994Z,2.83
2018-09-23T00:58:01.472Z,2.95
2018-09-23T01:00:29.064Z,2.80
2018-09-23T01:02:56.635Z,2.15
2018-09-23T01:05:24.266Z,2.35
2018-09-23T01:07:52.747Z,3.00
2018-09-23T01:10:20.581Z,3.20
2018-09-23T01:12:48.368Z,2.62
2018-09-23T01:15:16.077Z,2.70
2018-09-23T01:17:43.746Z,2.80
2018-09-23T01:20:11.434Z,3.00
2018-09-23T01:22:39.298Z,2.95
2018-09-23T01:25:06.948Z,3.17
2018-09-23T01:27:34.626Z,2.67
2018-09-23T01:30:02.713Z,3.65
2018-09-23T01:32:30.647Z,3.08
2018-09-23T01:35:00.776Z,3.22
2018-09-23T01:37:31.877Z,3.35
2018-09-23T01:40:01.822Z,2.87
2018-09-23T01:42:34.991Z,3.25
2018-09-23T01:45:12.904Z,2.77
2018-09-23T01:47:44.438Z,3.20
2018-09-23T01:50:16.669Z,3.02
2018-09-23T01:52:51.485Z,3.05
2018-09-23T01:55:24.457Z,3.08
2018-09-23T01:57:55.806Z,3.12
2018-09-23T02:00:30.638Z,2.95
2018-09-23T02:03:02.645Z,2.58
2018-09-23T02:05:32.073Z,3.33
2018-09-23T02:08:02.961Z,3.00
2018-09-23T02:10:40.135Z,3.00
2018-09-23T02:13:07.885Z,3.20
2018-09-23T02:15:37.916Z,2.72
2018-09-23T02:18:06.185Z,3.45
2018-09-23T02:20:37.727Z,3.20
2018-09-23T02:23:09.350Z,3.35
2018-09-23T02:25:40.942Z,2.70
2018-09-23T02:28:13.698Z,3.30
2018-09-23T02:30:45.371Z,3.45
2018-09-23T02:33:15.049Z,3.40
2018-09-23T02:35:46.722Z,3.45
2018-09-23T02:38:17.832Z,3.15
2018-09-23T02:40:47.468Z,3.80
2018-09-23T02:43:16.346Z,3.80
2018-09-23T02:45:48.626Z,3.40
2018-09-23T02:48:18.153Z,3.22
2018-09-23T02:50:47.490Z,3.40
2018-09-23T02:53:18.066Z,3.00
2018-09-23T02:55:46.943Z,3.62
2018-09-23T02:58:16.310Z,3.42
2018-09-23T03:00:45.437Z,3.35
2018-09-23T03:03:14.614Z,3.40
2018-09-23T03:05:44.453Z,3.80
2018-09-23T03:08:14.057Z,3.40
2018-09-23T03:10:42.142Z,3.58
2018-09-23T03:13:10.468Z,3.70
2018-09-23T03:15:38.776Z,3.20
2018-09-23T03:18:07.065Z,2.72
2018-09-23T03:20:36.459Z,3.27
2018-09-23T03:23:04.207Z,3.25
2018-09-23T03:25:32.801Z,3.08
2018-09-23T03:28:00.963Z,3.25
2018-09-23T03:30:29.036Z,3.20
2018-09-23T03:32:57.985Z,3.50
2018-09-23T03:35:25.786Z,3.10
2018-09-23T03:37:53.470Z,3.37
2018-09-23T03:40:21.680Z,3.02
2018-09-23T03:42:50.588Z,3.75
2018-09-23T03:45:18.300Z,3.08
2018-09-23T03:47:46.140Z,3.00
2018-09-23T03:50:14.084Z,3.17
2018-09-23T03:52:42.882Z,3.60
2018-09-23T03:55:12.174Z,3.70
2018-09-23T03:57:39.938Z,4.10
2018-09-23T04:00:08.070Z,3.83
2018-09-23T04:02:36.679Z,3.60
2018-09-23T04:05:05.553Z,4.05
2018-09-23T04:07:33.630Z,3.50
2018-09-23T04:10:02.581Z,3.80
2018-09-23T04:12:31.310Z,3.50
2018-09-23T04:14:59.560Z,3.08
2018-09-23T04:17:28.578Z,3.55
2018-09-23T04:19:57.596Z,3.35
2018-09-23T04:22:27.999Z,3.52
2018-09-23T04:24:57.553Z,3.08
2018-09-23T04:27:26.370Z,3.02
2018-09-23T04:29:54.970Z,3.70
2018-09-23T04:32:23.586Z,3.33
2018-09-23T04:34:51.982Z,2.92
2018-09-23T04:37:19.875Z,3.50
2018-09-23T04:39:48.894Z,3.47
2018-09-23T04:42:34.586Z,3.30
2018-09-23T04:45:40.697Z,3.65
2018-09-23T04:48:16.208Z,2.70
2018-09-23T04:51:57.077Z,2.85
2018-09-23T04:54:28.448Z,3.45
2018-09-23T04:57:00.133Z,3.10
2018-09-23T05:02:35.880Z,3.30
2018-09-23T05:05:06.823Z,3.60
2018-09-23T05:07:37.461Z,3.12
2018-09-23T05:10:08.443Z,3.20
2018-09-23T05:12:38.790Z,3.00
2018-09-23T05:15:08.055Z,3.50
2018-09-23T05:17:44.642Z,3.10
2018-09-23T05:20:15.969Z,2.77
2018-09-23T05:22:46.547Z,3.20
2018-09-23T05:25:21.290Z,3.15
2018-09-23T05:27:56.897Z,3.70
2018-09-23T05:30:28.247Z,3.08
2018-09-23T05:33:00.383Z,3.25
2018-09-23T05:35:31.330Z,3.30
2018-09-23T05:38:06.412Z,3.10
2018-09-23T05:40:39.746Z,3.02
2018-09-23T05:43:10.461Z,3.08
2018-09-23T05:45:39.184Z,3.05
2018-09-23T05:48:09.498Z,3.00
2018-09-23T05:50:40.065Z,3.00
2018-09-23T05:53:10.250Z,2.60
2018-09-23T05:55:42.196Z,3.12
2018-09-23T05:58:13.393Z,2.80
2018-09-23T06:00:50.819Z,2.65
2018-09-23T06:03:22.828Z,3.87
2018-09-23T06:05:52.235Z,2.80
2018-09-23T06:08:24.101Z,3.10
2018-09-23T06:10:53.075Z,3.12
2018-09-23T06:13:22.201Z,2.87
2018-09-23T06:15:51.512Z,3.02
2018-09-23T06:18:19.584Z,3.12
2018-09-23T06:20:47.818Z,3.02
2018-09-23T06:23:17.458Z,3.15
2018-09-23T06:25:45.526Z,3.50
2018-09-23T06:28:14.403Z,2.87
2018-09-23T06:30:43.321Z,3.40
2018-09-23T06:33:11.510Z,2.95
2018-09-23T06:35:39.752Z,2.85
2018-09-23T06:38:08.319Z,3.30
2018-09-23T06:40:37.455Z,3.35
2018-09-23T06:43:06.533Z,2.75
2018-09-23T06:45:36.109Z,2.83
2018-09-23T06:48:04.219Z,3.00
2018-09-23T06:50:32.960Z,3.27
2018-09-23T06:53:04.159Z,3.72
2018-09-23T06:55:31.946Z,2.75
2018-09-23T06:57:59.925Z,3.37
2018-09-23T07:00:28.169Z,2.87
2018-09-23T07:02:57.317Z,2.95
2018-09-23T07:05:25.584Z,3.20
2018-09-23T07:07:55.141Z,2.40
2018-09-23T07:10:24.957Z,3.50
2018-09-23T07:12:53.068Z,3.00
2018-09-23T07:15:22.011Z,3.45
2018-09-23T07:17:52.332Z,3.58
2018-09-23T07:20:22.749Z,3.10
2018-09-23T07:22:51.658Z,3.67
2018-09-23T07:25:19.921Z,3.25
2018-09-23T07:27:48.650Z,3.00
2018-09-23T07:30:16.508Z,3.20
2018-09-23T07:32:44.180Z,2.95
2018-09-23T07:35:12.370Z,3.35
2018-09-23T07:37:42.748Z,4.53
2018-09-23T07:40:11.053Z,5.10
2018-09-23T07:42:39.153Z,3.22
2018-09-23T07:45:07.044Z,3.35
2018-09-23T07:47:35.483Z,3.20
2018-09-23T07:50:04.363Z,3.70
2018-09-23T07:52:35.174Z,5.17
2018-09-23T07:55:06.330Z,3.40
2018-09-23T07:57:37.213Z,2.90
2018-09-23T08:00:09.122Z,2.95
2018-09-23T08:02:39.947Z,3.22
2018-09-23T08:05:11.190Z,2.85
2018-09-23T08:07:44.411Z,3.77
2018-09-23T08:10:24.453Z,3.10
2018-09-23T08:12:59.057Z,3.33
2018-09-23T08:15:30.394Z,3.87
2018-09-23T08:18:01.462Z,3.00
2018-09-23T08:20:30.396Z,3.67
2018-09-23T08:23:08.206Z,2.92
2018-09-23T08:25:49.416Z,3.20
2018-09-23T08:28:30.113Z,3.58
2018-09-23T08:31:05.691Z,3.72
2018-09-23T08:33:38.716Z,3.75
2018-09-23T08:36:18.146Z,3.52
2018-09-23T08:38:59.685Z,2.60
2018-09-23T08:41:42.544Z,3.60
2018-09-23T08:44:24.162Z,3.90
2018-09-23T08:47:01.981Z,2.58
2018-09-23T08:49:43.964Z,2.70
2018-09-23T08:52:23.229Z,3.47
2018-09-23T08:55:01.983Z,3.00
2018-09-23T08:57:42.908Z,3.58
2018-09-23T09:00:24.947Z,2.90
2018-09-23T09:03:02.133Z,3.33
2018-09-23T09:05:44.009Z,4.47
2018-09-23T09:08:36.333Z,3.05
2018-09-23T09:11:18.932Z,2.67
2018-09-23T09:13:59.662Z,3.20
2018-09-23T09:16:44.207Z,2.90
2018-09-23T09:19:31.140Z,2.80
2018-09-23T09:22:21.195Z,2.98
2018-09-23T09:24:59.255Z,4.08
2018-09-23T09:30:55.645Z,3.05
2018-09-23T09:33:51.657Z,3.30
2018-09-23T09:36:48.439Z,3.52
2018-09-23T09:39:35.033Z,4.47
2018-09-23T09:53:38.408Z,2.77
2018-09-23T09:56:19.187Z,2.55
2018-09-23T09:59:03.258Z,3.50
2018-09-23T10:01:49.027Z,4.20
2018-09-23T10:04:44.296Z,2.33
2018-09-23T10:16:26.248Z,4.20
2018-09-23T10:19:04.522Z,2.58
2018-09-23T10:21:54.307Z,3.45
2018-09-23T10:24:35.506Z,2.85
2018-09-23T10:27:21.120Z,3.17
2018-09-23T10:32:49.296Z,4.60
2018-09-23T10:35:17.851Z,4.53
2018-09-23T10:37:50.568Z,3.50
2018-09-23T10:40:18.126Z,5.22
2018-09-23T10:43:08.294Z,2.85
2018-09-23T10:45:59.614Z,3.62
2018-09-23T10:48:38.390Z,3.27
2018-09-23T10:51:16.309Z,3.27
2018-09-23T10:54:08.620Z,4.15
2018-09-23T10:59:37.966Z,3.20
2018-09-23T11:02:17.785Z,4.70
2018-09-23T11:04:46.732Z,2.87
2018-09-23T11:07:18.888Z,3.00
2018-09-23T11:09:49.050Z,3.95
2018-09-23T11:12:27.723Z,2.87
2018-09-23T11:14:59.101Z,3.20
2018-09-23T11:17:30.209Z,3.80
2018-09-23T11:20:00.145Z,4.13
2018-09-23T11:22:35.164Z,3.40
2018-09-23T11:25:15.985Z,3.90
2018-09-23T11:28:05.618Z,5.20
2018-09-23T11:35:03.211Z,3.50
2018-09-23T11:37:32.768Z,4.20
2018-09-23T11:40:03.745Z,3.63
2018-09-23T11:42:42.734Z,5.93
2018-09-23T11:45:12.994Z,3.53
2018-09-23T11:47:41.402Z,3.77
2018-09-23T11:50:17.009Z,3.13
2018-09-23T11:56:02.497Z,6.17
2018-09-23T12:15:26.349Z,3.93
2018-09-23T12:17:55.993Z,3.40
2018-09-23T12:20:25.976Z,6.40
2018-09-23T12:22:54.252Z,3.30
2018-09-23T12:25:25.341Z,4.23
2018-09-23T12:27:53.693Z,3.13
2018-09-23T12:30:22.223Z,3.57
2018-09-23T12:32:52.201Z,4.50
2018-09-23T12:35:21.127Z,3.30
2018-09-23T12:37:53.407Z,3.30
2018-09-23T12:43:01.965Z,4.17
2018-09-23T12:45:31.857Z,4.50
2018-09-23T12:48:01.835Z,4.93
2018-09-23T12:50:32.983Z,4.37
2018-09-23T12:53:54.252Z,4.40
2018-09-23T12:56:25.071Z,3.90
2018-09-23T12:58:55.798Z,3.80
2018-09-23T13:01:28.831Z,3.57
2018-09-23T13:04:03.520Z,5.27
2018-09-23T13:06:43.760Z,3.90
2018-09-23T13:09:14.492Z,2.90
2018-09-23T13:11:56.861Z,4.03
2018-09-23T13:14:25.793Z,4.17
2018-09-23T13:17:00.213Z,3.70
2018-09-23T13:19:30.004Z,4.27
2018-09-23T13:21:59.348Z,3.60
2018-09-23T13:24:30.319Z,4.33
2018-09-23T13:27:00.050Z,3.73
2018-09-23T13:29:29.195Z,3.67
2018-09-23T13:31:58.609Z,5.67
2018-09-23T13:34:29.955Z,4.07
2018-09-23T13:36:59.649Z,6.10
2018-09-23T13:39:29.193Z,4.17
2018-09-23T13:44:41.541Z,4.53
2018-09-23T13:47:19.289Z,4.10
2018-09-23T13:49:50.957Z,5.20
2018-09-23T13:52:26.803Z,3.20
2018-09-23T13:55:01.847Z,5.17
2018-09-23T13:57:36.707Z,3.37
2018-09-23T14:00:10.412Z,2.90
2018-09-23T14:02:38.596Z,3.27
2018-09-23T14:05:14.520Z,4.97
2018-09-23T14:07:48.707Z,2.90
2018-09-23T14:10:23.321Z,4.10
2018-09-23T14:12:57.081Z,4.73
2018-09-23T14:15:27.342Z,3.87
2018-09-23T14:18:01.754Z,3.47
2018-09-23T14:20:32.805Z,2.97
2018-09-23T14:23:01.969Z,2.97
2018-09-23T14:25:32.362Z,2.67
2018-09-23T14:31:02.194Z,3.30
2018-09-23T14:33:31.652Z,3.80
2018-09-23T14:36:01.662Z,4.93
2018-09-23T14:38:37.951Z,3.60
2018-09-23T14:41:06.828Z,5.17
2018-09-23T14:43:38.372Z,3.20
2018-09-23T14:46:16.723Z,3.57
2018-09-23T14:48:51.187Z,3.83
2018-09-23T14:51:23.325Z,3.90
2018-09-23T14:53:53.037Z,2.80
2018-09-23T14:56:26.847Z,4.50
2018-09-23T14:58:58.519Z,6.60
2018-09-23T15:01:31.425Z,4.20
2018-09-23T15:06:40.009Z,4.40
2018-09-23T15:09:12.204Z,4.17
2018-09-23T15:11:46.811Z,4.77
2018-09-23T15:14:15.093Z,5.17
2018-09-23T15:16:52.653Z,3.53
2018-09-23T15:19:25.860Z,4.97
2018-09-23T15:21:53.427Z,3.70
2018-09-23T15:24:21.003Z,5.13
2018-09-23T15:26:58.689Z,3.40
2018-09-23T15:29:41.545Z,4.10
2018-09-23T15:32:14.487Z,4.87
2018-09-23T15:34:47.549Z,5.97
2018-09-23T15:37:30.533Z,4.23
2018-09-23T15:40:03.813Z,3.83
2018-09-23T15:42:44.454Z,5.37
2018-09-23T15:45:19.726Z,5.80
2018-09-23T15:47:58.597Z,4.00
2018-09-23T15:50:38.268Z,3.70
2018-09-23T15:53:27.622Z,4.87
2018-09-23T15:56:05.079Z,3.60
2018-09-23T15:58:44.734Z,4.13
2018-09-23T16:01:20.796Z,4.70
2018-09-23T16:04:03.850Z,4.47
2018-09-23T16:06:39.988Z,3.50
2018-09-23T16:09:14.265Z,4.00
2018-09-23T16:11:53.628Z,3.77
2018-09-23T16:14:26.358Z,4.00
2018-09-23T16:17:01.658Z,3.77
2018-09-23T16:19:39.682Z,4.00
2018-09-23T16:22:08.321Z,3.60
2018-09-23T16:24:52.292Z,3.27
2018-09-23T16:27:29.828Z,4.97
2018-09-23T16:29:57.793Z,3.25
2018-09-23T16:32:26.379Z,3.50
2018-09-23T16:35:00.030Z,3.90
2018-09-23T16:37:32.321Z,2.70
2018-09-23T16:40:09.455Z,3.33
2018-09-23T16:42:37.134Z,3.55
2018-09-23T16:45:04.733Z,3.90
2018-09-23T16:47:32.418Z,3.50
2018-09-23T16:50:00.029Z,2.62
2018-09-23T16:52:27.641Z,3.35
2018-09-23T16:54:55.361Z,3.22
2018-09-23T16:57:23.292Z,2.10
2018-09-23T16:59:50.905Z,2.30
2018-09-23T17:02:18.457Z,2.47
2018-09-23T17:04:46.086Z,1.80
2018-09-23T17:07:13.753Z,1.92
2018-09-23T17:09:41.361Z,1.92
2018-09-23T17:12:08.986Z,1.47
2018-09-23T17:14:36.581Z,2.00
2018-09-23T17:17:04.196Z,1.92
2018-09-23T17:19:31.850Z,1.70
2018-09-23T17:21:59.547Z,1.60
2018-09-23T17:24:27.151Z,1.25
2018-09-23T17:26:54.778Z,1.75
2018-09-23T17:29:22.423Z,1.80
2018-09-23T17:31:50.102Z,1.82
2018-09-23T17:34:17.688Z,2.22
2018-09-23T17:36:45.299Z,1.30
2018-09-23T17:39:12.862Z,2.40
2018-09-23T17:41:40.831Z,2.67
2018-09-23T17:44:08.484Z,1.30
2018-09-23T17:46:36.335Z,1.55
2018-09-23T17:49:03.899Z,1.90
2018-09-23T17:51:31.899Z,1.47
2018-09-23T17:53:59.465Z,1.10
2018-09-23T17:56:26.994Z,1.55
2018-09-23T17:58:54.675Z,1.70
2018-09-23T18:01:22.201Z,1.32
2018-09-23T18:03:49.836Z,2.10
2018-09-23T18:06:17.463Z,1.70
2018-09-23T18:08:45.110Z,1.77
2018-09-23T18:11:12.661Z,1.40
2018-09-23T18:13:40.285Z,1.57
2018-09-23T18:16:07.891Z,1.10
2018-09-23T18:18:35.527Z,2.25
2018-09-23T18:21:03.095Z,1.42
2018-09-23T18:23:30.640Z,1.40
2018-09-23T18:25:58.234Z,1.92
2018-09-23T18:28:25.948Z,1.70
2018-09-23T18:30:53.591Z,1.45
2018-09-23T18:33:21.131Z,1.50
2018-09-23T18:35:48.746Z,1.70
2018-09-23T18:38:16.316Z,1.20
2018-09-23T18:40:44.063Z,1.40
2018-09-23T18:43:11.770Z,2.12
2018-09-23T18:45:39.386Z,1.62
2018-09-23T18:48:07.074Z,1.72
2018-09-23T18:50:34.611Z,1.95
2018-09-23T18:53:07.840Z,2.05
2018-09-23T18:55:42.968Z,1.90
2018-09-23T18:58:10.581Z,2.40
2018-09-23T19:00:38.646Z,2.65
2018-09-23T19:03:06.423Z,2.35
2018-09-23T19:05:34.292Z,2.58
2018-09-23T19:08:01.960Z,2.60
2018-09-23T19:10:30.388Z,2.65
2018-09-23T19:13:03.676Z,2.25
2018-09-23T19:15:32.143Z,2.45
2018-09-23T19:17:59.734Z,2.33
2018-09-23T19:20:27.326Z,2.40
2018-09-23T19:23:00.947Z,1.98
2018-09-23T19:25:28.512Z,2.10
2018-09-23T19:27:56.313Z,2.12
2018-09-23T19:30:23.912Z,2.00
2018-09-23T19:32:51.791Z,2.10
2018-09-23T19:35:19.450Z,1.87
2018-09-23T19:37:47.116Z,2.00
2018-09-23T19:40:14.855Z,2.27
2018-09-23T19:42:42.765Z,2.35
2018-09-23T19:45:10.446Z,2.00
2018-09-23T19:47:38.162Z,2.22
2018-09-23T19:50:05.820Z,2.60
2018-09-23T19:52:33.547Z,1.77
2018-09-23T19:55:01.622Z,2.58
2018-09-23T19:57:29.415Z,2.37
2018-09-23T19:59:57.250Z,2.70
2018-09-23T20:02:24.994Z,2.17
2018-09-23T20:04:53.110Z,2.37
2018-09-23T20:07:20.999Z,2.30
2018-09-23T20:09:48.620Z,2.65
2018-09-23T20:12:16.558Z,2.30
2018-09-23T20:14:44.282Z,2.40
2018-09-23T20:17:11.998Z,1.85
2018-09-23T20:19:39.642Z,1.65
2018-09-23T20:22:08.412Z,1.70
2018-09-23T20:24:36.330Z,1.60
2018-09-23T20:27:04.026Z,1.60
2018-09-23T20:29:31.831Z,1.70
2018-09-23T20:31:59.631Z,2.02
2018-09-23T20:34:27.378Z,1.80
2018-09-23T20:36:54.964Z,2.10
2018-09-23T20:39:22.673Z,1.87
2018-09-23T20:41:50.516Z,2.02
2018-09-23T20:44:18.259Z,1.95
2018-09-23T20:46:45.959Z,1.80
2018-09-23T20:49:13.742Z,2.00
2018-09-23T20:51:42.582Z,1.90
2018-09-23T20:54:10.338Z,2.02
2018-09-23T20:56:38.089Z,1.72
2018-09-23T20:59:05.769Z,1.98
2018-09-23T21:01:33.519Z,1.70
2018-09-23T21:04:01.367Z,2.00
2018-09-23T21:06:29.257Z,1.90
2018-09-23T21:08:56.925Z,1.87
2018-09-23T21:11:24.637Z,2.20
2018-09-23T21:13:52.379Z,2.30
2018-09-23T21:16:20.099Z,2.20
2018-09-23T21:18:47.734Z,2.12
2018-09-23T21:21:15.545Z,2.17
2018-09-23T21:23:43.170Z,2.27
2018-09-23T21:26:10.975Z,2.30
2018-09-23T21:28:38.761Z,2.35
2018-09-23T21:31:06.590Z,2.33
2018-09-23T21:33:34.429Z,2.50
2018-09-23T21:36:02.234Z,2.75
2018-09-23T21:38:30.055Z,2.70
2018-09-23T21:40:57.663Z,2.98
2018-09-23T21:43:25.408Z,2.75
2018-09-23T21:45:53.051Z,2.70
2018-09-23T21:48:20.781Z,2.70
2018-09-23T21:50:48.629Z,2.40
2018-09-23T21:53:16.345Z,2.90
2018-09-23T21:55:44.030Z,2.45
2018-09-23T21:58:11.855Z,2.52
2018-09-23T22:00:42.065Z,2.17
2018-09-23T22:03:10.820Z,2.60
2018-09-23T22:05:38.913Z,2.20
2018-09-23T22:08:06.786Z,2.30
2018-09-23T22:10:34.799Z,2.27
2018-09-23T22:13:02.661Z,2.30
2018-09-23T22:15:30.334Z,2.40
2018-09-23T22:17:58.051Z,2.20
2018-09-23T22:20:26.345Z,2.40
2018-09-23T22:22:54.570Z,2.10
2018-09-23T22:25:22.753Z,2.25
2018-09-23T22:27:50.768Z,2.20
2018-09-23T22:30:18.532Z,2.70
2018-09-23T22:32:46.230Z,2.80
2018-09-23T22:35:14.092Z,2.40
2018-09-23T22:37:41.883Z,2.00
2018-09-23T22:40:10.077Z,2.40
2018-09-23T22:42:38.344Z,2.37
2018-09-23T22:45:06.835Z,2.20
2018-09-23T22:47:34.929Z,2.65
2018-09-23T22:50:03.363Z,2.55
2018-09-23T22:52:31.054Z,2.58
2018-09-23T22:54:58.808Z,2.60
2018-09-23T22:57:26.446Z,2.70
2018-09-23T22:59:54.228Z,2.60
2018-09-23T23:02:21.932Z,2.40
2018-09-23T23:04:49.779Z,2.37
2018-09-23T23:07:17.866Z,2.25
2018-09-23T23:09:45.669Z,2.55
2018-09-23T23:12:13.463Z,2.52
2018-09-23T23:14:45.659Z,1.95
2018-09-23T23:17:13.435Z,2.52
2018-09-23T23:19:41.241Z,2.00
2018-09-23T23:22:08.838Z,2.45
2018-09-23T23:24:36.535Z,1.87
2018-09-23T23:27:04.306Z,2.33
2018-09-23T23:29:32.062Z,2.42
2018-09-23T23:31:59.985Z,2.40
2018-09-23T23:34:27.783Z,2.42
2018-09-23T23:36:55.474Z,2.50
2018-09-23T23:39:23.115Z,2.70
2018-09-23T23:41:50.906Z,2.40
2018-09-23T23:44:18.577Z,2.20
2018-09-23T23:46:46.326Z,2.25
2018-09-23T23:49:14.002Z,2.60
2018-09-23T23:51:41.746Z,2.10
2018-09-23T23:54:09.514Z,2.25
2018-09-23T23:56:37.292Z,2.33
2018-09-23T23:59:05.499Z,2.12
